メインページ
METAR-TAF:

METAR-TAF

空港 :

フォートマクマレー空港

フォートマクマレー, アルバータ州, カナダ

緯度: 56-39N, 経度: 111-13W, 海抜: 369m

現時点の気象観測

当レポートは15分前の09:29(UTC)に作成
北/北西の風 7kt
気温 -10°C
湿度 79%
気圧 1022 hPa
視程: 14.5km
高度3100ftの曇り

METAR: CYMM 140929Z AUTO 34007KT 9SM OVC031 M10/M13 A3018 RMK SLP250

時間: 02:44 (09:44 UTC)

予報

当レポートは3時間2分前の06:42(UTC)に作成
予報は14日の 07時(UTC)から 14日の 19時(UTC)まで有効
北/北西の風 6kt
視程: 10km
高度6000ftの曇り
14日の 07時(UTC)から 14日の 19時(UTC)まで一時的に
視程: 6.4km
高度1200ftの曇り
小雪

TAF: CYMM 140642Z 1407/1419 34006KT P6SM OVC060 TEMPO 1407/1419 4SM -SN OVC012 RMK FCST BASED ON AUTO OBS. NXT FCST BY 141300Z

4,000以上の空港の気象観測と天気予報(METAR報とTAF報)

利用可能な観測所は地図上に黄色い丸と赤い丸で示す。

丸の上にカーソルを重ねると観測所名を参照できる。

次にクリックすると気象観測と天気予報を参照できる。

マップの切り替え:黒色「×」印の緑ボタンをクリックして拡大、「-」印の緑ボタンをクリックして縮小、緑色の三角印をクリックして隣りの地図に切り替え


METAR-TAF: